Terminal Aerodrome Forecast
Issued by NWS

Home | Current Version | Previous Version | Text Only | Print | Product List | Glossary On
Versions: 1 2 3 4 5 6 7 8 9 10 11 12 13 14 15 16 17 18
000
FTUS45 KABQ 180100 AAA
TAFAEG
TAF AMD
KAEG 180107Z 1801/1824 13005KT 5SM BR VCSH BKN035 BKN080
      TEMPO 1801/1804 2SM -SHSNRA BR OVC012
     FM180400 26006KT P6SM BKN035
      TEMPO 1808/1812 2SM BR OVC010
     FM181200 VRB03KT P6SM VCFG BKN018
     FM181600 33005KT P6SM BKN050=

USA.gov is the U.S. government's official web portal to all federal, state and local government web resources and services.